Muikaichi, Japan

8:42 AM JST on 三月 26, 2017 (GMT +0900)
県道69号線 | | Change Station

高度 564 ft 34.20 °N, 131.92 °E | Updated 6 minutes ago

だいたい曇
だいたい曇
40.3 °F
体感気温 40 °F
0.6
風 変数 風 から 北西
Gusts 1.9 Mph

今日
高い -- | 低 -- °F
--% 降水確率
昨日
高い -- | 低 -- °F
Precip. -- インチ
気圧 30.01 インチ
視程 6.2 マイル
わずか 3000 ft
やや曇 10000 ft
体感気温(寒さ) 40 °F
露点温度 35 °F
湿度 81%
降水 0.00 インチ
積雪深 利用不可。
6:08 AM 6:28 PM
二十六夜, 6% visible
METAR RJOW 252300Z 16006KT 9999 FEW030 SCT100 07/03 Q1016
気圧 30.01 インチ
視程 6.2 マイル
わずか 3000 ft
やや曇 10000 ft
体感気温(寒さ) 40 °F
露点温度 35 °F
湿度 81%
降水 0.00 インチ
積雪深 利用不可。
6:08 AM 6:28 PM
二十六夜, 6% visible
METAR RJOW 252300Z 16006KT 9999 FEW030 SCT100 07/03 Q1016

Get Severe Weather Alerts

Thanks for signing up!

Be on the lookout for a verification email in your inbox.

You'll start receiving the daily forecast at 8 AM.

×

10-Day Weather Forecast

No radar image for this location.
×

Almanac

天文

Mar. 26, 2017 入り
実時間
常用薄明
航海薄明
天文薄明
可視光の長さ
可照時間
Tomorrow will be .
, % of the Moon is Illuminated

今日の極値

Country Highs Country Lows

Community

WunderPhotos

Upload Photos

1,962,540 写真がアップロードされました!

WunderBlog® & News

Nearby

空気品質

  空気品質 大気質指数 汚染物質
Not available.

積雪深

Station Depth 高度

地震活動

Distance Mag. Time & Date
Minimum magnitude displayed is 2.5.

地震活動

Distance Mag. Time & Date
Minimum magnitude displayed is 2.5.

沿岸の水温

地名 気温

Stations

最寄りの気象観測所

観測所位置 温度 体感気温(寒さ) 露点温度 湿度 Precip. 高度 更新日時 タイプする